LEXJ/SDR METAR and TAF weather

Enter ICAO airport designator
Station Type Date Time Source
LEXJ METAR 2021/04/13 23:00 UTC NOAA

LEXJ 132300Z AUTO 09004KT CAVOK 11/08 Q1022


Station Type Date Time Source
LEXJ Decoded METAR 2021/04/13 23:00 UTC NOAA

Santander / Parayas, Spain (LEXJ) 43-26N 003-49W 9M
Apr 13, 2021 - 07:00 PM EDT / 2021.04.13 2300 UTC
Wind: from the E (090 degrees) at 5 MPH (4 KT):0
Visibility: greater than 7 mile(s):0
Temperature: 51 F (11 C)
Dew Point: 46 F (8 C)
Relative Humidity: 81%
Pressure (altimeter): 30.18 in. Hg (1022 hPa)
ob: LEXJ 132300Z AUTO 09004KT CAVOK 11/08 Q1022
cycle: 23

Station Type Date Time Source
LEXJ TAF 2021/04/13 21:27 UTC NOAA

TAF TAF LEXJ 132000Z 1321/1421 09009KT 9999 FEW045 TX15/1412Z TN08/1406Z PROB40
TEMPO 1412/1418 07015G25KT

Example: see airport list